Latest Weather Observations for Launceston

IDT60801

Issued at 4:02 pm EST Sunday 26 June 2016 (issued every 30 minutes, with the page automatically refreshed every 10 minutes)

About weather observations | Map of weather stations | Latest weather observations for TAS | Other Formats
Station Details ID: 091237 Name: LAUNCESTON (TI TREE BEND) Lat: -41.42 Lon: 147.12 Height: 5.0 m
Data from the previous 72 hours. | See also: Recent months at Launceston
Date/Time
EST
Temp
°C
App
Temp
°C
Dew
Point
Rel
Hum
%
Delta-T
°C
Wind Press
QNH
hPa
Press
MSL
hPa
Rain
since 9 am
mm
Dir
 
Spd
km/h
Gust
km/h
Spd
kts
Gust
kts
26/04:00pm 11.1 7.9 6.8 75 2.0 NW 13 24 7 13 - - 0.0
26/03:30pm 11.0 8.9 8.1 82 1.4 NNW 9 13 5 7 - - 0.0
26/03:00pm 11.1 8.9 8.0 81 1.5 N 9 13 5 7 - - 0.0
26/02:30pm 11.5 8.6 8.2 80 1.6 NNW 13 19 7 10 - - 0.0
26/02:00pm 10.8 7.9 8.0 83 1.4 NNW 13 19 7 10 - - 0.0
26/01:30pm 10.1 7.6 8.0 87 1.0 NW 11 17 6 9 - - 0.0
26/01:00pm 9.0 6.7 8.9 99 0.0 NNW 11 17 6 9 - - 0.0
26/12:30pm 5.4 3.6 5.3 99 0.0 NW 4 6 2 3 - - 0.0
26/12:00pm 4.5 2.9 4.4 99 0.0 NW 2 4 1 2 - - 0.0
26/11:30am 4.0 2.3 3.9 99 0.0 NW 2 4 1 2 - - 0.0
26/11:00am 2.8 0.9 2.7 99 0.0 N 2 4 1 2 - - 0.0
26/10:30am 2.3 0.7 2.2 99 0.0 CALM 0 0 0 0 - - 0.0
26/10:00am 1.7 -0.4 1.6 99 0.0 N 2 4 1 2 - - 0.0
26/09:30am 1.3 -0.5 1.2 99 0.0 CALM 0 0 0 0 - - 0.0
26/09:00am 1.1 -0.7 1.0 99 0.0 CALM 0 0 0 0 - - 0.4
26/08:30am 1.0 -0.8 0.9 99 0.0 CALM 0 2 0 1 - - 0.2
26/08:00am 1.0 -1.2 0.9 99 0.0 E 2 4 1 2 - - 0.2
26/07:30am 1.1 -0.7 1.0 99 0.0 CALM 0 0 0 0 - - 0.2
26/07:00am 1.1 -0.7 1.0 99 0.0 CALM 0 0 0 0 - - 0.2
26/06:30am 1.1 -0.7 1.0 99 0.0 CALM 0 0 0 0 - - 0.2
26/06:00am 1.0 -0.8 0.9 99 0.0 CALM 0 0 0 0 - - 0.2
26/05:30am 0.8 -1.1 0.7 99 0.0 CALM 0 0 0 0 - - 0.2
26/05:00am 0.9 -1.0 0.8 99 0.0 CALM 0 0 0 0 - - 0.2
26/04:30am 0.9 -1.0 0.8 99 0.0 CALM 0 0 0 0 - - 0.2
26/04:00am 1.1 -0.7 1.0 99 0.0 CALM 0 0 0 0 - - 0.2
26/03:30am 0.8 -1.1 0.5 98 0.1 CALM 0 0 0 0 - - 0.2
26/03:00am 0.9 -1.0 0.6 98 0.1 CALM 0 0 0 0 - - 0.2
26/02:30am 1.1 -0.8 0.8 98 0.1 CALM 0 0 0 0 - - 0.2
26/02:00am 0.3 -1.7 0.0 98 0.1 CALM 0 0 0 0 - - 0.2
26/01:30am 0.9 -1.4 0.6 98 0.1 ENE 2 6 1 3 - - 0.2
26/01:00am 1.5 -0.7 1.2 98 0.1 S 2 2 1 1 - - 0.2
26/12:30am 1.6 -0.2 1.3 98 0.1 CALM 0 0 0 0 - - 0.2
26/12:00am 1.4 -0.4 1.0 97 0.1 CALM 0 0 0 0 - - 0.2
 
Date/Time
EST
Temp
°C
App
Temp
°C
Dew
Point
Rel
Hum
%
Delta-T
°C
Wind Press
QNH
hPa
Press
MSL
hPa
Rain
since 9 am
mm
Dir
 
Spd
km/h
Gust
km/h
Spd
kts
Gust
kts
25/11:30pm 1.3 -0.5 0.9 97 0.1 CALM 0 0 0 0 - - 0.2
25/11:00pm 1.9 0.1 1.5 97 0.2 CALM 0 0 0 0 - - 0.2
25/10:30pm 1.7 -0.5 1.1 96 0.2 SSE 2 2 1 1 - - 0.2
25/10:00pm 2.0 0.2 1.4 96 0.2 CALM 0 0 0 0 - - 0.2
25/09:30pm 2.4 0.7 1.8 96 0.2 CALM 0 2 0 1 - - 0.2
25/09:00pm 2.7 1.0 2.1 96 0.2 CALM 0 0 0 0 - - 0.2
25/08:30pm 2.9 1.3 2.2 95 0.3 CALM 0 0 0 0 - - 0.2
25/08:00pm 3.0 1.3 2.1 94 0.4 CALM 0 0 0 0 - - 0.2
25/07:30pm 3.6 2.0 2.6 93 0.4 CALM 0 0 0 0 - - 0.2
25/07:00pm 4.2 2.7 3.2 93 0.4 CALM 0 0 0 0 - - 0.2
25/06:30pm 4.4 2.2 3.1 91 0.5 SSW 4 4 2 2 - - 0.2
25/06:00pm 4.9 3.0 3.1 88 0.7 SW 2 4 1 2 - - 0.2
25/05:30pm 5.9 3.7 3.2 83 1.1 W 4 6 2 3 - - 0.2
25/05:00pm 7.3 5.0 2.8 73 1.9 N 4 4 2 2 - - 0.2
25/04:30pm 9.5 7.2 2.6 62 2.9 NW 4 6 2 3 - - 0.2
25/04:00pm 10.8 8.5 2.6 57 3.5 WNW 4 6 2 3 - - 0.2
25/03:30pm 10.4 8.0 2.3 57 3.4 NNW 4 6 2 3 - - 0.2
25/03:00pm 10.1 7.1 2.0 57 3.4 NW 7 9 4 5 - - 0.2
25/02:30pm 9.9 6.9 1.0 54 3.7 NW 6 9 3 5 - - 0.2
25/02:00pm 9.4 6.8 1.1 56 3.4 NNW 4 7 2 4 - - 0.2
25/01:30pm 9.9 7.5 2.3 59 3.2 NNW 4 6 2 3 - - 0.2
25/01:00pm 9.1 6.8 2.9 65 2.6 NW 4 7 2 4 - - 0.2
25/12:30pm 7.8 5.0 2.1 67 2.4 WNW 6 9 3 5 - - 0.2
25/12:00pm 6.5 3.6 1.6 71 2.0 NNW 6 7 3 4 - - 0.2
25/11:30am 5.4 2.6 1.9 78 1.4 NW 6 7 3 4 - - 0.2
25/11:00am 5.8 3.7 1.5 74 1.7 NE 2 4 1 2 - - 0.2
25/10:30am 4.5 2.4 1.7 82 1.1 ENE 2 6 1 3 - - 0.2
25/10:00am 2.9 1.2 1.7 92 0.5 CALM 0 0 0 0 - - 0.2
25/09:30am 1.8 0.0 1.5 98 0.1 CALM 0 0 0 0 - - 0.2
25/09:00am 0.7 -2.0 0.4 98 0.1 ENE 4 6 2 3 - - 0.0
25/08:30am -0.2 -2.2 -0.3 99 0.0 CALM 0 0 0 0 - - 0.0
25/08:00am -1.7 -3.9 -1.8 99 0.0 CALM 0 0 0 0 - - 0.0
25/07:30am -1.6 -3.8 -1.9 98 0.0 CALM 0 0 0 0 - - 0.0
25/07:00am -1.2 -3.4 -1.3 99 0.0 CALM 0 0 0 0 - - 0.0
25/06:30am -1.0 -3.9 -1.1 99 0.0 ENE 4 4 2 2 - - 0.0
25/06:00am -0.9 -3.0 -1.0 99 0.0 CALM 0 0 0 0 - - 0.0
25/05:30am -1.1 -3.3 -1.4 98 0.1 CALM 0 2 0 1 - - 0.0
25/05:00am -0.5 -3.4 -0.8 98 0.1 SE 4 6 2 3 - - 0.0
25/04:30am -0.5 -3.0 -0.8 98 0.1 NNW 2 4 1 2 - - 0.0
25/04:00am -0.3 -2.7 -0.6 98 0.1 N 2 6 1 3 - - 0.0
25/03:30am -1.0 -3.9 -1.3 98 0.1 S 4 6 2 3 - - 0.0
25/03:00am -0.3 -3.1 -0.6 98 0.1 SE 4 7 2 4 - - 0.0
25/02:30am -0.1 -2.2 -0.5 97 0.1 CALM 0 0 0 0 - - 0.0
25/02:00am 0.3 -1.7 -0.1 97 0.1 CALM 0 0 0 0 - - 0.0
25/01:30am 0.5 -2.2 0.1 97 0.1 ESE 4 6 2 3 - - 0.0
25/01:00am 0.3 -2.1 -0.3 96 0.2 E 2 6 1 3 - - 0.0
25/12:30am 0.5 -1.5 -0.1 96 0.2 CALM 0 0 0 0 - - 0.0
25/12:00am 1.0 -1.7 0.4 96 0.2 WNW 4 7 2 4 - - 0.0
 
Date/Time
EST
Temp
°C
App
Temp
°C
Dew
Point
Rel
Hum
%
Delta-T
°C
Wind Press
QNH
hPa
Press
MSL
hPa
Rain
since 9 am
mm
Dir
 
Spd
km/h
Gust
km/h
Spd
kts
Gust
kts
24/11:30pm 1.4 -0.8 0.8 96 0.2 W 2 2 1 1 - - 0.0
24/11:00pm 1.3 -1.4 0.6 95 0.3 N 4 7 2 4 - - 0.0
24/10:30pm 1.3 -1.4 0.6 95 0.3 SSW 4 6 2 3 - - 0.0
24/10:00pm 2.6 -0.2 1.9 95 0.3 E 6 7 3 4 - - 0.0
24/09:30pm 2.1 -0.4 1.4 95 0.3 SSW 4 6 2 3 - - 0.0
24/09:00pm 3.2 1.2 2.3 94 0.4 SE 2 6 1 3 - - 0.0
24/08:30pm 3.5 1.2 2.5 93 0.4 SSW 4 7 2 4 - - 0.0
24/08:00pm 3.6 0.8 2.0 89 0.6 ESE 6 9 3 5 - - 0.0
24/07:30pm 4.0 2.1 2.8 92 0.5 ESE 2 6 1 3 - - 0.0
24/07:00pm 4.7 2.6 3.7 93 0.4 ESE 4 6 2 3 - - 0.0
24/06:30pm 5.1 3.4 3.8 91 0.5 SW 2 6 1 3 - - 0.0
24/06:00pm 6.3 4.3 4.5 88 0.8 E 4 6 2 3 - - 0.0
24/05:30pm 6.7 4.7 4.2 84 1.1 S 4 6 2 3 - - 0.0
24/05:00pm 7.5 5.4 4.1 79 1.5 S 4 6 2 3 - - 0.0
24/04:30pm 7.6 5.1 4.0 78 1.6 SW 6 7 3 4 - - 0.0
24/04:00pm 8.1 5.4 3.8 74 1.9 S 7 7 4 4 - - 0.0
24/03:30pm 9.4 7.1 2.7 63 2.8 SW 4 7 2 4 - - 0.0
24/03:00pm 10.2 8.5 3.9 65 2.8 N 2 2 1 1 - - 0.0
24/02:30pm 10.2 8.0 3.5 63 2.9 N 4 6 2 3 - - 0.0
24/02:00pm 9.8 7.3 4.0 67 2.6 N 6 6 3 3 - - 0.0
24/01:30pm 9.5 7.1 4.3 70 2.3 N 6 11 3 6 - - 0.0
24/01:00pm 8.9 6.6 4.9 76 1.8 N 6 7 3 4 - - 0.0
24/12:30pm 8.8 6.6 5.4 79 1.5 N 6 9 3 5 - - 0.0
24/12:00pm 8.2 6.1 6.0 86 1.0 N 6 7 3 4 - - 0.0
24/11:30am 6.9 4.7 5.1 88 0.8 NW 6 6 3 3 - - 0.0
24/11:00am 6.1 5.1 5.4 95 0.3 CALM 0 6 0 3 - - 0.0
24/10:30am 5.7 4.7 5.4 98 0.1 CALM 0 2 0 1 - - 0.0
24/10:00am 4.7 3.5 4.4 98 0.1 CALM 0 0 0 0 - - 0.0
24/09:30am 4.3 2.6 4.0 98 0.1 WNW 2 2 1 1 - - 0.0
24/09:00am 4.0 2.6 3.7 98 0.1 CALM 0 2 0 1 - - 18.4
24/08:30am 3.3 1.0 3.0 98 0.1 E 4 6 2 3 - - 18.4
24/08:00am 3.4 1.2 3.1 98 0.1 SE 4 4 2 2 - - 18.4
24/07:30am 2.5 0.1 2.2 98 0.1 S 4 6 2 3 - - 18.4
24/07:00am 2.8 0.5 2.5 98 0.1 ENE 4 6 2 3 - - 18.4
24/06:30am 2.6 0.6 2.3 98 0.1 ESE 2 2 1 1 - - 18.4
24/06:00am 1.7 -0.1 1.3 97 0.2 CALM 0 0 0 0 - - 18.4
24/05:30am 2.1 0.4 1.7 97 0.2 CALM 0 4 0 2 - - 18.4
24/05:00am 2.2 0.5 1.6 96 0.2 CALM 0 2 0 1 - - 18.4
24/04:30am 3.3 1.4 2.9 97 0.2 WNW 2 4 1 2 - - 18.4
24/04:00am 3.2 1.6 2.6 96 0.2 CALM 0 2 0 1 - - 18.4
24/03:30am 3.0 1.3 2.1 94 0.4 CALM 0 0 0 0 - - 18.4
24/03:00am 4.4 2.6 3.5 94 0.4 WNW 2 6 1 3 - - 18.4
24/02:30am 4.5 2.0 3.5 93 0.4 WNW 6 6 3 3 - - 18.4
24/02:00am 5.0 2.5 3.8 92 0.5 NNW 6 6 3 3 - - 18.4
24/01:30am 5.2 2.7 4.0 92 0.5 NW 6 7 3 4 - - 18.4
24/01:00am 5.5 3.1 4.2 91 0.6 NW 6 7 3 4 - - 18.4
24/12:30am 5.5 3.4 4.0 90 0.6 WNW 4 7 2 4 - - 18.4
24/12:00am 5.7 3.1 4.2 90 0.6 NW 7 11 4 6 - - 18.4
 
Date/Time
EST
Temp
°C
App
Temp
°C
Dew
Point
Rel
Hum
%
Delta-T
°C
Wind Press
QNH
hPa
Press
MSL
hPa
Rain
since 9 am
mm
Dir
 
Spd
km/h
Gust
km/h
Spd
kts
Gust
kts
23/11:30pm 5.8 2.8 4.1 89 0.7 NW 9 13 5 7 - - 18.4
23/11:00pm 5.7 3.1 4.3 91 0.6 NW 7 11 4 6 - - 18.4
23/10:30pm 5.9 3.0 4.4 90 0.6 NW 9 15 5 8 - - 18.4
23/10:00pm 6.3 3.3 4.3 87 0.9 NNW 9 13 5 7 - - 18.4
23/09:30pm 6.4 4.2 5.2 92 0.5 NNW 6 7 3 4 - - 18.4
23/09:00pm 6.8 3.7 5.6 92 0.5 NW 11 17 6 9 - - 18.4
23/08:30pm 7.1 4.1 6.0 93 0.5 NW 11 15 6 8 - - 18.4
23/08:00pm 7.4 5.8 6.3 93 0.5 N 4 9 2 5 - - 18.4
23/07:30pm 7.5 5.6 6.6 94 0.4 SE 6 7 3 4 - - 18.4
23/07:00pm 7.6 6.8 6.5 93 0.5 CALM 0 4 0 2 - - 18.4
23/06:30pm 7.7 6.1 6.3 91 0.6 SW 4 7 2 4 - - 18.4
23/06:00pm 7.7 5.6 6.5 92 0.5 W 7 15 4 8 - - 18.2
23/05:30pm 8.4 7.7 7.0 91 0.7 CALM 0 2 0 1 - - 17.2
23/05:00pm 8.8 7.9 7.6 92 0.6 WNW 2 9 1 5 - - 15.8
23/04:30pm 9.3 8.1 7.9 91 0.7 W 4 11 2 6 - - 15.2

Other Formats:

Comma delimited format used in spreadsheet applications
http://www.bom.gov.au/fwo/IDT60801/IDT60801.94969.axf

JavaScript Object Notation format (JSON) in row-major order
http://www.bom.gov.au/fwo/IDT60801/IDT60801.94969.json